Time;durP1;ratioP1;P1;durP2;ratioP2;P2;SDS_P1;SDS_P2;PMS_P1;PMS_P2;Temp;Humidity;BMP_temperature;BMP_pressure;BME280_temperature;BME280_humidity;BME280_pressure;Samples;Min_cycle;Max_cycle;Signal;HPM_P1;HPM_P2
2022/05/02 00:00:41;;;;;;;8.13;6.47;;;13.00;78.70;;;;;;5050685;28;20443;-43
2022/05/02 00:03:09;;;;;;;8.13;5.10;;;13.00;78.30;;;;;;5051303;27;20439;-43
2022/05/02 00:05:36;;;;;;;6.60;5.30;;;13.20;78.80;;;;;;5051371;28;20527;-43
2022/05/02 00:08:03;;;;;;;5.63;4.70;;;13.10;78.80;;;;;;5050924;28;20438;-42
2022/05/02 00:10:29;;;;;;;5.40;4.70;;;13.00;78.50;;;;;;5050818;27;20454;-43
2022/05/02 00:12:57;;;;;;;6.63;5.33;;;13.10;78.60;;;;;;5050826;28;20470;-41
2022/05/02 00:15:24;;;;;;;5.27;4.77;;;13.30;78.80;;;;;;5051144;28;20426;-43
2022/05/02 00:17:57;;;;;;;6.33;5.20;;;13.00;78.20;;;;;;5050389;28;20453;-43
2022/05/02 00:20:25;;;;;;;7.90;5.33;;;13.40;78.80;;;;;;5050157;28;20437;-44
2022/05/02 00:22:52;;;;;;;5.50;4.83;;;13.00;78.30;;;;;;5050448;28;20921;-44
2022/05/02 00:25:19;;;;;;;9.77;5.57;;;12.80;77.80;;;;;;5050679;28;20956;-44
2022/05/02 00:27:46;;;;;;;7.93;4.50;;;13.00;78.50;;;;;;5050433;28;20442;-43
2022/05/02 00:30:14;;;;;;;11.03;5.20;;;13.10;78.30;;;;;;5050342;28;20450;-43
2022/05/02 00:32:41;;;;;;;6.10;4.60;;;13.00;78.00;;;;;;5050870;28;20956;-42
2022/05/02 00:35:09;;;;;;;6.37;4.37;;;13.00;78.00;;;;;;5050772;28;20467;-42
2022/05/02 00:37:37;;;;;;;7.17;4.57;;;13.10;77.90;;;;;;5050771;28;20489;-42
2022/05/02 00:40:05;;;;;;;4.67;4.00;;;12.90;77.80;;;;;;5050827;28;20961;-42
2022/05/02 00:42:32;;;;;;;7.97;4.87;;;12.90;77.90;;;;;;5049637;28;20442;-43
2022/05/02 00:44:58;;;;;;;7.80;4.20;;;13.10;78.00;;;;;;5050559;28;20439;-42
2022/05/02 00:47:25;;;;;;;6.47;5.10;;;12.90;77.90;;;;;;5050198;28;20434;-42
2022/05/02 00:49:52;;;;;;;8.47;5.20;;;13.40;78.50;;;;;;5049931;28;20454;-43
2022/05/02 00:52:20;;;;;;;8.03;4.47;;;12.30;77.20;;;;;;5050331;28;20430;-43
2022/05/02 00:54:48;;;;;;;8.33;4.77;;;12.70;77.70;;;;;;5050278;28;20449;-43
2022/05/02 00:57:17;;;;;;;7.23;4.60;;;13.10;77.90;;;;;;5050678;27;20431;-43
2022/05/02 00:59:44;;;;;;;6.53;4.63;;;13.00;78.30;;;;;;5050074;28;20486;-43
2022/05/02 01:02:14;;;;;;;9.00;5.40;;;13.20;78.80;;;;;;5050333;28;20441;-43
2022/05/02 01:04:42;;;;;;;7.70;4.30;;;13.00;78.70;;;;;;5051227;28;20474;-46
2022/05/02 01:07:12;;;;;;;13.87;7.57;;;13.20;79.30;;;;;;5051209;28;20448;-43
2022/05/02 01:09:41;;;;;;;10.03;7.53;;;12.60;79.60;;;;;;5051235;28;20959;-44
2022/05/02 01:12:14;;;;;;;12.20;8.10;;;12.80;80.00;;;;;;5052456;28;20445;-43
2022/05/02 01:14:41;;;;;;;11.30;6.83;;;12.60;80.00;;;;;;5049802;28;20490;-45
2022/05/02 01:17:08;;;;;;;11.70;6.03;;;12.50;79.90;;;;;;5049886;28;20430;-43
2022/05/02 01:19:36;;;;;;;15.47;6.10;;;12.50;80.30;;;;;;5049293;28;20484;-43
2022/05/02 01:22:05;;;;;;;6.73;6.00;;;12.70;80.90;;;;;;5048639;28;20457;-45
2022/05/02 01:24:36;;;;;;;7.10;5.23;;;12.30;80.40;;;;;;5049834;28;20442;-43
2022/05/02 01:27:03;;;;;;;6.63;5.27;;;12.30;80.80;;;;;;5049735;28;20437;-42
2022/05/02 01:29:31;;;;;;;7.20;4.80;;;12.50;80.90;;;;;;5049755;28;20454;-43
2022/05/02 01:31:57;;;;;;;9.20;5.10;;;11.80;80.70;;;;;;5049683;28;20437;-42
2022/05/02 01:34:24;;;;;;;4.97;4.40;;;12.20;81.40;;;;;;5050041;28;20479;-43
2022/05/02 01:36:51;;;;;;;8.30;6.07;;;12.10;81.60;;;;;;5049669;28;20477;-42
2022/05/02 01:39:19;;;;;;;10.27;6.20;;;12.00;82.20;;;;;;5049450;28;20479;-42
2022/05/02 01:41:46;;;;;;;10.50;5.57;;;12.20;83.10;;;;;;5049340;28;20434;-42
2022/05/02 01:44:13;;;;;;;5.77;5.13;;;12.00;83.00;;;;;;5049654;28;20543;-43
2022/05/02 01:46:39;;;;;;;9.90;6.40;;;12.20;83.70;;;;;;5049865;28;20440;-43
2022/05/02 01:49:07;;;;;;;7.67;5.23;;;11.70;83.30;;;;;;5050064;28;20448;-43
2022/05/02 01:51:34;;;;;;;7.27;5.03;;;12.50;84.20;;;;;;5052739;28;20527;-43
2022/05/02 01:54:00;;;;;;;6.90;5.43;;;12.10;83.70;;;;;;5052810;28;20439;-42
2022/05/02 01:56:28;;;;;;;6.80;5.80;;;12.50;84.50;;;;;;5052626;28;20516;-43
2022/05/02 01:58:55;;;;;;;8.20;5.60;;;12.00;84.30;;;;;;5052166;28;20477;-42
2022/05/02 02:01:22;;;;;;;6.73;5.30;;;12.20;83.90;;;;;;5052085;28;20455;-43
2022/05/02 02:03:48;;;;;;;7.17;5.77;;;11.90;84.30;;;;;;5053311;28;20452;-43
2022/05/02 02:06:14;;;;;;;6.40;5.40;;;11.70;84.00;;;;;;5052868;28;20443;-42
2022/05/02 02:08:41;;;;;;;10.20;4.83;;;11.70;84.70;;;;;;5050400;28;20459;-42
2022/05/02 02:11:09;;;;;;;6.93;5.17;;;11.70;85.10;;;;;;5051806;28;20197;-42
2022/05/02 02:13:38;;;;;;;10.03;5.50;;;11.60;85.30;;;;;;5050305;28;20439;-42
2022/05/02 02:16:07;;;;;;;10.87;5.97;;;11.60;85.30;;;;;;5049404;28;20531;-42
2022/05/02 02:18:34;;;;;;;5.27;4.77;;;11.60;85.40;;;;;;5048926;28;20562;-43
2022/05/02 02:21:01;;;;;;;6.10;4.70;;;11.70;85.50;;;;;;5049095;28;20429;-42
2022/05/02 02:23:28;;;;;;;10.40;4.50;;;11.50;85.30;;;;;;5049288;28;20439;-42
2022/05/02 02:25:55;;;;;;;7.33;5.33;;;11.30;85.30;;;;;;5048986;28;20435;-42
2022/05/02 02:28:22;;;;;;;7.80;5.10;;;11.40;85.50;;;;;;5048782;28;20974;-46
2022/05/02 02:30:50;;;;;;;5.90;4.73;;;11.30;85.10;;;;;;5048490;28;20542;-43
2022/05/02 02:33:16;;;;;;;8.20;4.50;;;11.80;86.00;;;;;;5048635;28;20443;-42
2022/05/02 02:35:43;;;;;;;10.00;5.10;;;11.40;85.80;;;;;;5048626;28;20446;-42
2022/05/02 02:38:12;;;;;;;9.50;4.97;;;11.70;85.80;;;;;;5048648;28;20444;-42
2022/05/02 02:40:39;;;;;;;6.60;4.60;;;11.70;86.10;;;;;;5048188;28;20487;-42
2022/05/02 02:43:07;;;;;;;5.87;4.33;;;11.40;85.90;;;;;;5048630;28;20807;-44
2022/05/02 02:45:34;;;;;;;7.20;4.93;;;11.20;85.80;;;;;;5048804;28;20438;-42
2022/05/02 02:48:01;;;;;;;7.07;4.30;;;11.90;86.60;;;;;;5048670;28;20442;-42
2022/05/02 02:50:28;;;;;;;6.57;4.40;;;11.50;86.20;;;;;;5048187;28;20457;-42
2022/05/02 02:52:55;;;;;;;10.37;5.47;;;11.70;86.60;;;;;;5048411;28;20504;-43
2022/05/02 02:55:22;;;;;;;5.57;4.40;;;11.20;85.90;;;;;;5048387;28;20989;-42
2022/05/02 02:57:49;;;;;;;6.90;4.43;;;11.40;86.30;;;;;;5047140;28;20450;-44
2022/05/02 03:00:16;;;;;;;6.97;4.80;;;11.20;86.20;;;;;;5048073;28;20483;-44
2022/05/02 03:02:44;;;;;;;10.43;4.83;;;11.10;86.50;;;;;;5048725;28;20427;-42
2022/05/02 03:07:57;;;;;;;13.03;5.20;;;11.00;86.70;;;;;;5050326;28;21003;-43
2022/05/02 03:10:24;;;;;;;9.50;5.63;;;11.00;87.30;;;;;;5051486;28;20427;-43
2022/05/02 03:12:50;;;;;;;15.83;6.10;;;11.10;87.30;;;;;;5051729;28;20435;-42
2022/05/02 03:15:17;;;;;;;24.57;7.77;;;10.90;87.30;;;;;;5051864;28;20431;-43
2022/05/02 03:17:44;;;;;;;16.03;5.50;;;11.00;88.00;;;;;;5051960;28;20454;-44
2022/05/02 03:20:12;;;;;;;9.40;4.90;;;10.90;88.00;;;;;;5049945;28;20470;-43
2022/05/02 03:22:39;;;;;;;10.07;5.50;;;10.80;88.60;;;;;;5051285;28;20434;-43
2022/05/02 03:25:06;;;;;;;7.60;6.27;;;10.90;88.90;;;;;;5051738;28;20580;-44
2022/05/02 03:27:33;;;;;;;8.13;5.50;;;10.80;89.20;;;;;;5051440;28;20444;-42
2022/05/02 03:30:00;;;;;;;6.77;4.47;;;11.20;90.00;;;;;;5051253;27;20452;-44
2022/05/02 03:32:26;;;;;;;10.43;5.47;;;10.90;90.00;;;;;;5051545;28;20437;-42
2022/05/02 03:34:53;;;;;;;7.13;5.60;;;10.60;90.00;;;;;;5051437;28;20900;-43
2022/05/02 03:37:22;;;;;;;8.60;5.70;;;10.30;90.10;;;;;;5051174;28;20438;-43
2022/05/02 03:39:48;;;;;;;10.20;5.83;;;10.60;90.50;;;;;;5050921;28;20510;-43
2022/05/02 03:42:15;;;;;;;17.60;7.00;;;10.10;90.50;;;;;;5051341;28;20428;-43
2022/05/02 03:44:42;;;;;;;21.87;6.50;;;10.80;91.10;;;;;;5051369;28;20522;-41
2022/05/02 03:47:08;;;;;;;11.20;7.90;;;10.70;90.90;;;;;;5049848;28;20479;-43
2022/05/02 03:49:35;;;;;;;14.43;7.33;;;10.80;91.10;;;;;;5050525;28;20505;-41
2022/05/02 03:52:01;;;;;;;14.00;8.30;;;10.50;90.80;;;;;;5051164;28;20529;-42
2022/05/02 03:54:29;;;;;;;11.37;7.80;;;11.10;91.10;;;;;;5050896;28;20491;-45
2022/05/02 03:56:56;;;;;;;9.70;6.17;;;10.30;90.70;;;;;;5051114;27;20435;-43
2022/05/02 03:59:23;;;;;;;13.37;6.83;;;10.70;90.80;;;;;;5050516;28;20525;-42
2022/05/02 04:01:50;;;;;;;9.03;5.63;;;10.30;90.60;;;;;;5051135;28;20427;-43
2022/05/02 04:04:16;;;;;;;7.83;6.07;;;10.90;91.00;;;;;;5049952;28;20458;-44
2022/05/02 04:06:43;;;;;;;6.87;5.17;;;10.40;90.50;;;;;;5051144;28;20419;-44
2022/05/02 04:09:10;;;;;;;6.90;5.43;;;10.50;90.70;;;;;;5050603;28;20504;-43
2022/05/02 04:11:38;;;;;;;6.10;5.50;;;10.70;90.80;;;;;;5051131;28;20431;-44
2022/05/02 04:14:04;;;;;;;6.60;5.17;;;10.70;90.70;;;;;;5051077;28;20439;-42
2022/05/02 04:16:31;;;;;;;6.73;5.87;;;10.80;90.80;;;;;;5050801;28;20435;-43
2022/05/02 04:18:58;;;;;;;7.77;5.50;;;11.10;91.00;;;;;;5026236;23;20502;-51
2022/05/02 04:21:24;;;;;;;9.33;5.57;;;10.90;90.90;;;;;;4990932;28;20485;-51
2022/05/02 04:23:51;;;;;;;8.40;5.10;;;10.70;90.70;;;;;;4990752;28;20433;-50
2022/05/02 04:26:17;;;;;;;7.70;5.63;;;10.90;90.90;;;;;;4990548;28;20449;-51
2022/05/02 04:28:45;;;;;;;7.60;5.90;;;11.10;90.90;;;;;;4990430;28;20556;-51
2022/05/02 04:31:12;;;;;;;8.00;5.27;;;10.60;90.90;;;;;;4990758;28;20476;-52
2022/05/02 04:33:39;;;;;;;7.73;5.50;;;10.70;90.80;;;;;;4990743;28;20434;-52
2022/05/02 04:36:07;;;;;;;8.80;5.40;;;10.70;90.90;;;;;;4990674;28;20449;-52
2022/05/02 04:38:33;;;;;;;7.73;5.77;;;10.80;91.20;;;;;;4990267;28;20803;-51
2022/05/02 04:41:00;;;;;;;11.73;5.57;;;11.00;91.20;;;;;;4990530;28;20484;-51
2022/05/02 04:43:26;;;;;;;7.20;5.50;;;10.70;91.10;;;;;;4990594;28;20444;-52
2022/05/02 04:45:54;;;;;;;7.70;6.07;;;10.40;91.00;;;;;;4990324;28;20437;-53
2022/05/02 04:48:21;;;;;;;6.00;5.40;;;11.00;91.30;;;;;;4990217;28;20460;-52
2022/05/02 04:50:47;;;;;;;10.07;6.13;;;10.80;91.00;;;;;;4990593;28;20533;-52
2022/05/02 04:53:14;;;;;;;11.27;6.27;;;10.80;91.00;;;;;;4990470;28;20433;-52
2022/05/02 04:55:41;;;;;;;11.93;7.07;;;11.10;90.80;;;;;;4990208;28;20449;-52
2022/05/02 04:58:07;;;;;;;9.07;6.43;;;10.40;90.40;;;;;;4990060;28;20453;-52
2022/05/02 05:00:34;;;;;;;9.23;7.60;;;11.70;91.00;;;;;;4989562;28;20476;-50
2022/05/02 05:03:04;;;;;;;8.83;7.93;;;10.80;90.30;;;;;;4990144;28;20480;-51
2022/05/02 05:05:30;;;;;;;10.30;8.13;;;11.80;90.70;;;;;;4990074;28;20447;-52
2022/05/02 05:07:57;;;;;;;14.63;9.10;;;11.20;90.00;;;;;;4989974;28;20464;-52
2022/05/02 05:10:23;;;;;;;11.20;6.70;;;11.50;90.20;;;;;;4989363;28;20431;-52
2022/05/02 05:13:02;;;;;;;11.17;7.00;;;10.80;89.60;;;;;;4989678;28;20430;-52
2022/05/02 05:19:01;;;;;;;12.90;7.03;;;11.50;89.50;;;;;;4989318;28;20457;-52
2022/05/02 05:21:41;;;;;;;9.43;7.27;;;11.80;89.30;;;;;;4989797;28;20469;-52
2022/05/02 05:24:55;;;;;;;12.53;7.43;;;11.80;88.70;;;;;;4990104;28;20440;-52
2022/05/02 05:27:44;;;;;;;10.20;7.93;;;11.90;87.90;;;;;;4928723;29;20457;-51
2022/05/02 05:30:11;;;;;;;10.07;8.37;;;12.00;87.80;;;;;;4984550;28;20800;-52
2022/05/02 05:32:45;;;;;;;14.47;8.37;;;11.60;87.20;;;;;;4989391;28;20529;-51
2022/05/02 05:35:20;;;;;;;13.60;10.17;;;12.10;87.20;;;;;;4989648;28;20441;-53
2022/05/02 05:38:01;;;;;;;12.80;9.53;;;12.10;86.70;;;;;;4989772;28;20820;-52
2022/05/02 05:40:36;;;;;;;15.13;11.37;;;12.80;86.90;;;;;;4988845;28;20483;-51
2022/05/02 05:43:32;;;;;;;14.83;10.90;;;12.70;85.70;;;;;;4989031;28;20497;-52
2022/05/02 05:46:17;;;;;;;10.47;8.93;;;12.80;84.80;;;;;;4987771;28;20465;-52
2022/05/02 05:48:58;;;;;;;16.60;9.80;;;13.00;84.20;;;;;;4988680;28;20460;-52
2022/05/02 05:51:34;;;;;;;10.37;7.80;;;13.30;83.30;;;;;;4988859;28;20937;-52
2022/05/02 05:54:18;;;;;;;14.50;10.07;;;13.50;82.20;;;;;;4989365;28;20890;-51
2022/05/02 05:56:52;;;;;;;10.97;9.43;;;14.10;81.80;;;;;;4989189;28;20803;-52
2022/05/02 05:59:28;;;;;;;13.93;8.83;;;14.30;81.00;;;;;;4988781;28;20519;-53
2022/05/02 06:02:05;;;;;;;16.10;9.40;;;14.10;80.50;;;;;;4989190;28;20490;-52
2022/05/02 06:04:34;;;;;;;12.93;8.30;;;13.90;79.40;;;;;;4989269;28;20433;-52
2022/05/02 06:07:03;;;;;;;13.53;8.47;;;13.80;78.70;;;;;;4988530;28;20461;-52
2022/05/02 06:09:31;;;;;;;11.60;8.93;;;13.80;78.20;;;;;;4988719;28;20452;-52
2022/05/02 06:11:59;;;;;;;17.20;9.73;;;14.00;78.30;;;;;;4988977;28;20436;-51
2022/05/02 06:14:28;;;;;;;11.90;8.70;;;13.40;78.00;;;;;;4988610;28;20455;-52
2022/05/02 06:19:44;;;;;;;9.63;8.63;;;14.00;77.00;;;;;;4987982;28;20835;-50
2022/05/02 06:22:13;;;;;;;11.10;9.90;;;13.50;75.90;;;;;;4988498;28;20484;-52
2022/05/02 06:24:44;;;;;;;13.83;10.97;;;13.80;75.60;;;;;;4988916;28;20440;-52
2022/05/02 06:27:13;;;;;;;16.23;8.57;;;14.10;75.40;;;;;;4987319;28;20468;-52
2022/05/02 06:29:42;;;;;;;11.80;8.00;;;14.40;74.60;;;;;;4988008;28;20459;-52
2022/05/02 06:32:10;;;;;;;13.77;8.60;;;14.60;73.50;;;;;;4988590;28;20914;-52
2022/05/02 06:34:38;;;;;;;12.90;8.97;;;15.00;72.70;;;;;;4988772;28;20438;-52
2022/05/02 06:37:36;;;;;;;12.13;9.10;;;14.60;71.90;;;;;;4988562;28;20463;-52
2022/05/02 06:40:12;;;;;;;10.00;7.80;;;14.90;71.40;;;;;;5003954;28;20491;-52
2022/05/02 06:42:40;;;;;;;11.40;8.77;;;14.50;70.90;;;;;;4991551;28;20441;-53
2022/05/02 06:45:31;;;;;;;12.60;7.20;;;14.40;70.20;;;;;;4990463;28;20463;-52
2022/05/02 06:48:14;;;;;;;11.90;7.30;;;14.90;68.20;;;;;;4988092;28;20847;-52
2022/05/02 06:50:45;;;;;;;18.17;6.57;;;14.60;68.50;;;;;;4991613;28;20425;-50
2022/05/02 06:53:28;;;;;;;9.50;6.10;;;14.60;68.10;;;;;;4992132;28;20444;-53
2022/05/02 06:56:01;;;;;;;10.40;6.77;;;14.60;66.40;;;;;;4991953;28;20508;-52
2022/05/02 06:58:48;;;;;;;10.77;7.17;;;14.70;67.00;;;;;;4991229;28;20461;-52
2022/05/02 07:01:24;;;;;;;11.10;7.47;;;15.00;67.60;;;;;;4991415;28;20513;-52
2022/05/02 07:04:08;;;;;;;12.73;6.27;;;14.70;68.60;;;;;;4991748;28;20435;-52
2022/05/02 07:06:46;;;;;;;11.57;6.07;;;14.30;66.90;;;;;;4991692;28;20434;-52
2022/05/02 07:09:22;;;;;;;9.63;6.17;;;14.80;65.90;;;;;;4991184;28;20903;-52
2022/05/02 07:11:58;;;;;;;9.50;6.50;;;14.90;67.00;;;;;;4991627;28;20544;-52
2022/05/02 07:14:33;;;;;;;13.90;6.67;;;14.90;67.60;;;;;;4991460;28;20541;-53
2022/05/02 07:17:07;;;;;;;7.40;6.00;;;14.90;68.50;;;;;;4990942;28;20445;-52
2022/05/02 07:19:48;;;;;;;8.57;6.07;;;15.20;69.00;;;;;;4989641;28;20472;-53
2022/05/02 07:22:28;;;;;;;9.10;5.50;;;14.90;68.00;;;;;;4991152;28;20461;-53
2022/05/02 07:25:09;;;;;;;7.90;4.73;;;14.40;67.00;;;;;;4991183;28;20437;-52
2022/05/02 07:27:56;;;;;;;7.13;5.57;;;14.40;67.30;;;;;;4991676;28;20432;-53
2022/05/02 07:30:24;;;;;;;9.13;5.40;;;15.10;67.70;;;;;;4990705;28;20441;-53
2022/05/02 07:32:53;;;;;;;6.63;4.63;;;15.00;67.10;;;;;;4991195;28;20437;-53
2022/05/02 07:35:21;;;;;;;7.60;5.00;;;15.00;67.10;;;;;;4989407;28;20455;-53
2022/05/02 07:37:48;;;;;;;8.00;5.27;;;15.30;67.30;;;;;;4991425;28;20669;-53
2022/05/02 07:40:19;;;;;;;5.90;5.33;;;14.70;67.40;;;;;;4990397;28;20754;-53
2022/05/02 07:42:46;;;;;;;8.50;5.07;;;15.10;68.10;;;;;;4990829;28;20494;-51
2022/05/02 07:45:17;;;;;;;8.13;4.67;;;15.30;68.50;;;;;;4991247;28;20465;-52
2022/05/02 07:47:46;;;;;;;10.30;5.47;;;14.40;67.40;;;;;;4991038;28;20541;-51
2022/05/02 07:50:13;;;;;;;6.37;4.10;;;15.00;68.30;;;;;;4990228;28;20541;-52
2022/05/02 07:52:40;;;;;;;5.13;4.63;;;15.10;68.80;;;;;;4991190;28;20438;-52
2022/05/02 07:55:09;;;;;;;6.10;4.60;;;15.40;69.50;;;;;;4991412;28;20827;-51
2022/05/02 07:57:39;;;;;;;7.20;4.10;;;15.00;68.80;;;;;;4990832;28;20704;-52
2022/05/02 08:00:10;;;;;;;6.73;4.40;;;15.30;68.60;;;;;;4990900;28;20434;-52
2022/05/02 08:02:39;;;;;;;7.47;4.10;;;15.00;68.50;;;;;;4990494;28;21105;-52
2022/05/02 08:05:07;;;;;;;5.70;4.37;;;14.90;69.10;;;;;;4990608;28;20435;-52
2022/05/02 08:07:36;;;;;;;9.27;5.03;;;15.20;69.10;;;;;;4990453;28;20953;-52
2022/05/02 08:10:30;;;;;;;8.40;5.27;;;15.20;69.10;;;;;;4989164;28;20446;-50
2022/05/02 08:13:03;;;;;;;6.73;4.10;;;15.20;68.90;;;;;;4990943;28;20947;-52
2022/05/02 08:15:33;;;;;;;8.37;4.43;;;15.30;68.70;;;;;;4991036;28;20421;-52
2022/05/02 08:18:37;;;;;;;5.70;4.30;;;15.20;68.60;;;;;;4989293;28;20482;-52
2022/05/02 08:21:08;;;;;;;6.87;4.10;;;15.40;68.50;;;;;;4990987;28;20832;-52
2022/05/02 08:29:39;;;;;;;5.53;4.27;;;15.50;69.00;;;;;;4986711;28;21037;-52
2022/05/02 08:32:10;;;;;;;9.30;4.37;;;15.70;69.20;;;;;;4991293;28;20437;-52
2022/05/02 08:34:43;;;;;;;5.40;4.67;;;15.30;69.00;;;;;;4989443;28;20454;-52
2022/05/02 08:37:27;;;;;;;10.43;4.90;;;15.50;68.90;;;;;;4990701;28;20445;-51
2022/05/02 08:40:05;;;;;;;4.53;4.00;;;15.50;68.80;;;;;;4989864;28;20433;-52
2022/05/02 08:43:03;;;;;;;8.27;4.90;;;15.70;68.80;;;;;;4990196;28;20477;-50
2022/05/02 08:46:09;;;;;;;10.17;4.97;;;15.70;68.60;;;;;;4990045;28;20525;-51
2022/05/02 08:52:25;;;;;;;9.50;5.10;;;15.80;68.40;;;;;;4990410;28;20418;-52
2022/05/02 08:55:07;;;;;;;8.67;4.67;;;15.30;67.80;;;;;;4990356;28;20815;-52
2022/05/02 08:57:55;;;;;;;5.70;4.93;;;15.80;68.00;;;;;;4990127;28;20947;-53
2022/05/02 09:00:28;;;;;;;13.40;6.23;;;16.30;68.60;;;;;;4990015;28;20449;-52
2022/05/02 09:03:28;;;;;;;6.50;4.20;;;16.20;68.50;;;;;;4989638;28;20498;-52
2022/05/02 09:06:45;;;;;;;4.90;4.40;;;15.80;67.80;;;;;;4991046;28;20488;-52
2022/05/02 09:09:28;;;;;;;9.33;4.70;;;16.00;67.70;;;;;;4929896;29;20464;-50
2022/05/02 09:12:31;;;;;;;7.40;4.50;;;16.20;67.50;;;;;;4981781;28;20449;-51
2022/05/02 09:15:26;;;;;;;7.50;4.73;;;15.90;67.40;;;;;;4989030;28;20452;-52
2022/05/02 09:18:19;;;;;;;8.43;4.53;;;16.40;67.70;;;;;;4989998;28;20481;-52
2022/05/02 09:21:05;;;;;;;8.23;5.73;;;16.00;67.00;;;;;;4989867;28;20780;-52
2022/05/02 09:24:08;;;;;;;6.33;4.67;;;16.30;67.10;;;;;;4990106;28;20456;-52
2022/05/02 09:27:14;;;;;;;6.40;3.87;;;16.20;66.70;;;;;;4989954;28;20433;-52
2022/05/02 09:30:18;;;;;;;9.57;4.70;;;16.30;66.60;;;;;;4987373;28;20477;-52
2022/05/02 09:32:48;;;;;;;7.40;5.70;;;16.50;66.30;;;;;;4989341;28;20498;-50
2022/05/02 09:35:19;;;;;;;8.70;4.97;;;16.30;66.10;;;;;;4988310;28;20535;-51
2022/05/02 09:37:57;;;;;;;8.97;5.30;;;16.30;65.90;;;;;;4989622;28;20454;-51
2022/05/02 09:40:33;;;;;;;8.30;4.40;;;16.40;65.60;;;;;;4989081;28;20429;-52
2022/05/02 09:43:15;;;;;;;8.90;4.47;;;16.40;65.30;;;;;;4988119;28;20493;-52
2022/05/02 09:52:12;;;;;;;10.47;4.70;;;16.60;64.40;;;;;;4989265;28;20760;-52
2022/05/02 09:58:00;;;;;;;5.93;5.03;;;16.80;63.60;;;;;;4962375;28;20479;-52
2022/05/02 10:03:25;;;;;;;6.30;3.87;;;17.10;63.10;;;;;;4988176;28;20546;-58
2022/05/02 10:06:04;;;;;;;11.23;4.90;;;17.50;63.60;;;;;;4989205;28;20439;-52
2022/05/02 10:08:39;;;;;;;7.70;4.50;;;16.80;62.70;;;;;;4988467;28;20471;-51
2022/05/02 10:11:09;;;;;;;5.30;4.13;;;17.40;62.90;;;;;;4988826;28;20436;-51
2022/05/02 10:13:47;;;;;;;5.67;4.60;;;17.30;63.00;;;;;;4988530;28;20455;-51
2022/05/02 10:16:25;;;;;;;7.90;4.47;;;16.70;62.30;;;;;;4989015;28;20452;-50
2022/05/02 10:19:14;;;;;;;5.83;4.90;;;17.50;63.40;;;;;;4988638;28;20475;-51
2022/05/02 10:21:59;;;;;;;7.50;4.50;;;17.30;63.10;;;;;;4987359;28;20475;-52
2022/05/02 10:24:50;;;;;;;9.57;4.57;;;17.30;63.00;;;;;;4988938;28;20427;-51
2022/05/02 10:27:33;;;;;;;6.53;5.10;;;17.20;63.10;;;;;;4988511;28;20441;-52
2022/05/02 10:30:06;;;;;;;5.67;4.60;;;16.90;62.50;;;;;;4988391;28;20444;-51
2022/05/02 10:32:45;;;;;;;7.37;4.60;;;17.50;62.70;;;;;;4988610;28;20444;-52
2022/05/02 10:35:14;;;;;;;4.93;4.53;;;17.40;62.30;;;;;;4988842;28;20439;-51
2022/05/02 10:37:43;;;;;;;6.50;4.23;;;17.40;62.30;;;;;;4988396;28;20452;-51
2022/05/02 10:40:12;;;;;;;5.63;5.03;;;17.00;61.70;;;;;;4986734;28;20509;-52
2022/05/02 10:42:46;;;;;;;10.63;5.50;;;17.30;61.90;;;;;;4988504;28;20476;-51
2022/05/02 10:45:14;;;;;;;5.50;5.00;;;17.20;62.10;;;;;;4988970;28;20432;-52
2022/05/02 10:47:45;;;;;;;7.90;4.93;;;17.00;61.90;;;;;;4988987;28;20435;-52
2022/05/02 10:50:17;;;;;;;7.50;3.97;;;17.30;62.60;;;;;;4988966;28;20470;-53
2022/05/02 10:53:14;;;;;;;7.30;4.57;;;17.20;62.60;;;;;;4988653;28;20444;-52
2022/05/02 10:56:01;;;;;;;12.23;4.70;;;17.20;62.30;;;;;;4983916;28;20547;-53
2022/05/02 10:58:34;;;;;;;6.60;4.40;;;17.30;62.70;;;;;;4987849;28;20462;-52
2022/05/02 11:01:11;;;;;;;8.13;5.33;;;17.30;62.70;;;;;;4988412;28;20436;-53
2022/05/02 11:03:47;;;;;;;7.80;5.00;;;17.30;62.70;;;;;;4988548;28;20434;-52
2022/05/02 11:06:31;;;;;;;6.70;4.67;;;17.50;62.30;;;;;;4988254;28;20438;-52
2022/05/02 11:09:02;;;;;;;6.17;4.60;;;17.50;62.20;;;;;;4987743;28;20459;-53
2022/05/02 11:11:41;;;;;;;5.30;4.50;;;17.50;62.30;;;;;;4988226;28;20433;-52
2022/05/02 11:14:17;;;;;;;7.07;5.27;;;17.50;61.90;;;;;;4988071;28;20431;-52
2022/05/02 11:16:52;;;;;;;7.40;5.47;;;17.70;61.80;;;;;;4988348;28;20447;-52
2022/05/02 11:22:25;;;;;;;6.90;5.27;;;17.80;61.30;;;;;;4987712;28;21007;-53
2022/05/02 11:25:06;;;;;;;7.57;4.90;;;17.20;60.40;;;;;;4988247;28;20437;-52
2022/05/02 11:27:43;;;;;;;6.50;5.10;;;17.80;60.90;;;;;;4991250;28;20968;-53
2022/05/02 11:30:12;;;;;;;7.80;5.63;;;17.70;60.90;;;;;;4991350;28;20444;-52
2022/05/02 11:32:57;;;;;;;5.47;4.40;;;17.70;61.00;;;;;;4991037;28;20459;-53
2022/05/02 11:35:29;;;;;;;7.53;5.10;;;18.10;61.10;;;;;;4974435;28;20452;-51
2022/05/02 11:38:00;;;;;;;7.33;5.23;;;17.80;60.60;;;;;;4991542;28;20521;-51
2022/05/02 11:40:29;;;;;;;6.77;6.00;;;17.60;60.00;;;;;;4990757;28;20440;-50
2022/05/02 11:42:57;;;;;;;7.80;5.90;;;17.90;60.80;;;;;;4991324;28;21012;-52
2022/05/02 11:45:33;;;;;;;6.60;5.20;;;17.60;60.10;;;;;;4990955;28;20444;-51
2022/05/02 11:48:33;;;;;;;6.50;5.50;;;17.70;60.10;;;;;;4991043;28;20462;-51
2022/05/02 11:51:04;;;;;;;9.40;5.33;;;17.90;60.10;;;;;;4991127;28;20439;-51
2022/05/02 11:53:35;;;;;;;6.80;4.93;;;17.50;59.90;;;;;;4991641;28;20450;-50
2022/05/02 11:56:04;;;;;;;6.43;5.67;;;17.50;60.20;;;;;;4991383;28;20427;-52
2022/05/02 11:58:38;;;;;;;6.00;5.40;;;17.80;60.10;;;;;;4990308;28;20537;-51
2022/05/02 12:01:06;;;;;;;7.33;5.43;;;17.80;59.90;;;;;;4990944;28;20448;-51
2022/05/02 12:03:53;;;;;;;6.77;6.17;;;17.80;59.80;;;;;;4990937;28;20494;-52
2022/05/02 12:06:43;;;;;;;7.03;5.60;;;18.10;59.80;;;;;;4991672;28;20497;-52
2022/05/02 12:09:22;;;;;;;8.27;5.20;;;18.80;60.20;;;;;;4990716;28;20487;-52
2022/05/02 12:11:54;;;;;;;7.63;5.57;;;18.40;59.80;;;;;;4990829;28;20448;-52
2022/05/02 12:14:24;;;;;;;11.37;5.77;;;18.40;59.60;;;;;;4990556;28;20452;-52
2022/05/02 12:17:06;;;;;;;8.40;5.20;;;18.30;59.40;;;;;;4991415;28;20446;-52
2022/05/02 12:19:34;;;;;;;7.10;4.97;;;18.40;59.10;;;;;;4990489;28;20467;-52
2022/05/02 12:22:02;;;;;;;6.70;5.40;;;18.30;59.00;;;;;;4990317;28;20564;-53
2022/05/02 12:24:33;;;;;;;8.00;4.97;;;18.30;58.80;;;;;;4990669;28;20444;-53
2022/05/02 12:27:00;;;;;;;6.40;5.73;;;18.30;58.80;;;;;;4990825;28;20449;-53
2022/05/02 12:29:28;;;;;;;8.10;5.50;;;18.80;59.00;;;;;;4989987;28;20512;-53
2022/05/02 12:31:57;;;;;;;6.20;5.10;;;18.40;58.40;;;;;;4989957;28;20442;-52
2022/05/02 12:34:36;;;;;;;6.80;5.70;;;18.70;58.40;;;;;;4990308;28;20443;-53
2022/05/02 12:37:07;;;;;;;7.17;6.03;;;18.30;58.50;;;;;;4989192;28;20525;-53
2022/05/02 12:39:36;;;;;;;8.40;5.40;;;18.50;58.70;;;;;;4990434;28;20910;-52
2022/05/02 12:42:15;;;;;;;7.67;6.30;;;18.80;59.00;;;;;;4988853;28;20481;-53
2022/05/02 12:44:47;;;;;;;8.73;5.00;;;18.90;58.70;;;;;;4991030;28;20497;-53
2022/05/02 12:47:21;;;;;;;5.60;5.10;;;19.10;58.80;;;;;;4990205;28;20438;-53
2022/05/02 12:50:01;;;;;;;6.20;4.30;;;18.30;58.00;;;;;;4990141;28;20571;-51
2022/05/02 12:52:29;;;;;;;5.73;4.40;;;18.90;58.40;;;;;;4990150;28;20437;-51
2022/05/02 12:54:57;;;;;;;7.50;4.33;;;19.00;58.70;;;;;;4990071;28;20894;-51
2022/05/02 13:03:21;;;;;;;7.63;4.30;;;18.10;58.40;;;;;;4980788;28;20496;-51
2022/05/02 13:05:59;;;;;;;9.27;4.37;;;19.10;59.10;;;;;;4990070;28;20559;-51
2022/05/02 13:08:34;;;;;;;5.20;4.53;;;18.50;58.80;;;;;;4987144;28;20476;-52
2022/05/02 13:11:07;;;;;;;7.80;4.70;;;18.70;58.80;;;;;;4971121;28;20447;-53
2022/05/02 13:13:39;;;;;;;7.47;5.00;;;18.90;58.90;;;;;;4970554;28;20442;-51
2022/05/02 13:16:22;;;;;;;8.03;4.63;;;19.10;59.00;;;;;;4970388;28;20470;-50
2022/05/02 13:18:49;;;;;;;7.40;4.60;;;18.80;58.80;;;;;;4987248;28;20492;-53
2022/05/02 13:21:17;;;;;;;6.23;4.27;;;19.00;58.60;;;;;;4990085;28;20448;-53
2022/05/02 13:23:46;;;;;;;7.50;4.70;;;19.00;58.50;;;;;;4989608;28;20831;-52
2022/05/02 13:26:57;;;;;;;5.83;4.03;;;19.30;58.80;;;;;;4989810;28;20437;-50
2022/05/02 13:29:30;;;;;;;9.03;4.67;;;19.20;58.00;;;;;;4961570;28;20471;-51
2022/05/02 13:32:03;;;;;;;7.93;4.43;;;19.40;58.90;;;;;;4990112;28;20528;-51
2022/05/02 13:34:53;;;;;;;8.17;4.60;;;19.30;58.60;;;;;;4989455;28;20442;-51
2022/05/02 13:37:32;;;;;;;6.60;4.60;;;19.60;58.30;;;;;;4989868;28;20465;-51
2022/05/02 13:40:07;;;;;;;18.13;5.27;;;19.30;57.50;;;;;;4989917;28;20662;-52
2022/05/02 13:42:50;;;;;;;7.60;5.50;;;19.50;57.70;;;;;;4989771;28;20509;-52
2022/05/02 13:45:28;;;;;;;7.70;5.20;;;19.20;57.00;;;;;;4988589;28;20572;-52
2022/05/02 13:48:02;;;;;;;5.93;4.83;;;19.80;57.60;;;;;;4989586;28;20795;-51
2022/05/02 13:50:31;;;;;;;5.80;5.20;;;19.30;57.30;;;;;;4989012;28;20878;-51
2022/05/02 13:53:04;;;;;;;4.17;3.77;;;19.30;58.10;;;;;;4987715;28;20936;-51